sensor_id;sensor_type;location;lat;lon;timestamp;P1;durP1;ratioP1;P2;durP2;ratioP2
70342;SDS011;57767;42.068;24.752;2022-10-31T00:00:01;3.42;;;2.13;;
70342;SDS011;57767;42.068;24.752;2022-10-31T00:01:10;5.80;;;2.20;;
70342;SDS011;57767;42.068;24.752;2022-10-31T00:02:17;7.05;;;2.50;;
70342;SDS011;57767;42.068;24.752;2022-10-31T00:03:19;3.90;;;2.30;;
70342;SDS011;57767;42.068;24.752;2022-10-31T00:04:21;6.30;;;2.63;;
70342;SDS011;57767;42.068;24.752;2022-10-31T00:05:22;6.70;;;2.58;;
70342;SDS011;57767;42.068;24.752;2022-10-31T00:06:24;5.38;;;2.00;;
70342;SDS011;57767;42.068;24.752;2022-10-31T00:07:26;10.82;;;2.60;;
70342;SDS011;57767;42.068;24.752;2022-10-31T00:08:28;11.07;;;3.50;;
70342;SDS011;57767;42.068;24.752;2022-10-31T00:09:30;12.32;;;2.50;;
70342;SDS011;57767;42.068;24.752;2022-10-31T00:10:31;7.10;;;2.65;;
70342;SDS011;57767;42.068;24.752;2022-10-31T00:11:33;3.97;;;2.15;;
70342;SDS011;57767;42.068;24.752;2022-10-31T00:12:35;7.63;;;2.58;;
70342;SDS011;57767;42.068;24.752;2022-10-31T00:13:36;6.57;;;2.38;;
70342;SDS011;57767;42.068;24.752;2022-10-31T00:14:38;6.50;;;2.33;;
70342;SDS011;57767;42.068;24.752;2022-10-31T00:15:40;4.47;;;2.10;;
70342;SDS011;57767;42.068;24.752;2022-10-31T00:16:42;5.78;;;2.35;;
70342;SDS011;57767;42.068;24.752;2022-10-31T00:17:44;4.95;;;2.63;;
70342;SDS011;57767;42.068;24.752;2022-10-31T00:18:52;8.18;;;2.75;;
70342;SDS011;57767;42.068;24.752;2022-10-31T00:19:56;8.43;;;2.30;;
70342;SDS011;57767;42.068;24.752;2022-10-31T00:21:01;6.05;;;2.40;;
70342;SDS011;57767;42.068;24.752;2022-10-31T00:22:04;6.05;;;2.78;;
70342;SDS011;57767;42.068;24.752;2022-10-31T00:23:06;4.43;;;2.80;;
70342;SDS011;57767;42.068;24.752;2022-10-31T00:24:10;5.90;;;2.55;;
70342;SDS011;57767;42.068;24.752;2022-10-31T00:25:12;4.85;;;2.30;;
70342;SDS011;57767;42.068;24.752;2022-10-31T00:26:13;14.13;;;3.75;;
70342;SDS011;57767;42.068;24.752;2022-10-31T00:27:16;4.13;;;2.10;;
70342;SDS011;57767;42.068;24.752;2022-10-31T00:28:17;10.98;;;2.67;;
70342;SDS011;57767;42.068;24.752;2022-10-31T00:29:24;4.88;;;2.30;;
70342;SDS011;57767;42.068;24.752;2022-10-31T00:30:25;4.43;;;2.78;;
70342;SDS011;57767;42.068;24.752;2022-10-31T00:31:27;7.93;;;2.83;;
70342;SDS011;57767;42.068;24.752;2022-10-31T00:32:29;4.45;;;2.13;;
70342;SDS011;57767;42.068;24.752;2022-10-31T00:33:33;5.30;;;2.20;;
70342;SDS011;57767;42.068;24.752;2022-10-31T00:34:36;4.75;;;2.22;;
70342;SDS011;57767;42.068;24.752;2022-10-31T00:35:38;7.20;;;2.20;;
70342;SDS011;57767;42.068;24.752;2022-10-31T00:36:39;9.65;;;2.22;;
70342;SDS011;57767;42.068;24.752;2022-10-31T00:37:41;6.97;;;2.58;;
70342;SDS011;57767;42.068;24.752;2022-10-31T00:38:43;6.88;;;2.25;;
70342;SDS011;57767;42.068;24.752;2022-10-31T00:39:45;7.10;;;2.40;;
70342;SDS011;57767;42.068;24.752;2022-10-31T00:40:50;6.07;;;2.20;;
70342;SDS011;57767;42.068;24.752;2022-10-31T00:41:51;6.63;;;2.30;;
70342;SDS011;57767;42.068;24.752;2022-10-31T00:42:53;5.75;;;2.42;;
70342;SDS011;57767;42.068;24.752;2022-10-31T00:43:55;7.60;;;2.28;;
70342;SDS011;57767;42.068;24.752;2022-10-31T00:44:56;9.25;;;3.08;;
70342;SDS011;57767;42.068;24.752;2022-10-31T00:45:58;6.90;;;2.05;;
70342;SDS011;57767;42.068;24.752;2022-10-31T00:47:00;5.75;;;2.20;;
70342;SDS011;57767;42.068;24.752;2022-10-31T00:48:02;4.68;;;2.00;;
70342;SDS011;57767;42.068;24.752;2022-10-31T00:49:03;10.38;;;3.05;;
70342;SDS011;57767;42.068;24.752;2022-10-31T00:50:05;6.22;;;2.30;;
70342;SDS011;57767;42.068;24.752;2022-10-31T00:51:08;6.50;;;2.33;;
70342;SDS011;57767;42.068;24.752;2022-10-31T00:52:10;6.47;;;2.25;;
70342;SDS011;57767;42.068;24.752;2022-10-31T00:53:12;6.55;;;2.20;;
70342;SDS011;57767;42.068;24.752;2022-10-31T00:54:13;7.88;;;2.60;;
70342;SDS011;57767;42.068;24.752;2022-10-31T00:55:15;4.10;;;2.13;;
70342;SDS011;57767;42.068;24.752;2022-10-31T00:56:17;6.82;;;2.65;;
70342;SDS011;57767;42.068;24.752;2022-10-31T00:57:18;9.32;;;2.40;;
70342;SDS011;57767;42.068;24.752;2022-10-31T00:58:20;6.22;;;2.30;;
70342;SDS011;57767;42.068;24.752;2022-10-31T00:59:22;6.78;;;2.40;;
70342;SDS011;57767;42.068;24.752;2022-10-31T01:00:24;7.38;;;1.90;;
70342;SDS011;57767;42.068;24.752;2022-10-31T01:01:31;5.55;;;2.35;;
70342;SDS011;57767;42.068;24.752;2022-10-31T01:02:32;5.50;;;2.42;;
70342;SDS011;57767;42.068;24.752;2022-10-31T01:03:34;4.03;;;2.33;;
70342;SDS011;57767;42.068;24.752;2022-10-31T01:04:36;7.32;;;2.38;;
70342;SDS011;57767;42.068;24.752;2022-10-31T01:05:38;5.53;;;2.13;;
70342;SDS011;57767;42.068;24.752;2022-10-31T01:06:40;3.05;;;2.15;;
70342;SDS011;57767;42.068;24.752;2022-10-31T01:07:42;4.88;;;2.08;;
70342;SDS011;57767;42.068;24.752;2022-10-31T01:08:44;6.45;;;2.65;;
70342;SDS011;57767;42.068;24.752;2022-10-31T01:09:47;7.47;;;2.60;;
70342;SDS011;57767;42.068;24.752;2022-10-31T01:11:06;6.18;;;2.42;;
70342;SDS011;57767;42.068;24.752;2022-10-31T01:12:11;5.28;;;2.15;;
70342;SDS011;57767;42.068;24.752;2022-10-31T01:13:13;3.97;;;2.25;;
70342;SDS011;57767;42.068;24.752;2022-10-31T01:14:15;10.98;;;3.05;;
70342;SDS011;57767;42.068;24.752;2022-10-31T01:15:18;7.57;;;2.10;;
70342;SDS011;57767;42.068;24.752;2022-10-31T01:16:23;4.60;;;2.20;;
70342;SDS011;57767;42.068;24.752;2022-10-31T01:17:26;10.15;;;2.40;;
70342;SDS011;57767;42.068;24.752;2022-10-31T01:18:28;4.38;;;1.90;;
70342;SDS011;57767;42.068;24.752;2022-10-31T01:19:30;9.57;;;2.25;;
70342;SDS011;57767;42.068;24.752;2022-10-31T01:20:31;6.13;;;2.20;;
70342;SDS011;57767;42.068;24.752;2022-10-31T01:21:33;5.88;;;2.67;;
70342;SDS011;57767;42.068;24.752;2022-10-31T01:22:35;5.28;;;2.10;;
70342;SDS011;57767;42.068;24.752;2022-10-31T01:23:36;3.90;;;2.33;;
70342;SDS011;57767;42.068;24.752;2022-10-31T01:24:38;4.85;;;2.50;;
70342;SDS011;57767;42.068;24.752;2022-10-31T01:25:40;6.78;;;2.40;;
70342;SDS011;57767;42.068;24.752;2022-10-31T01:26:43;10.27;;;2.25;;
70342;SDS011;57767;42.068;24.752;2022-10-31T01:27:45;6.30;;;2.28;;
70342;SDS011;57767;42.068;24.752;2022-10-31T01:28:51;9.10;;;2.47;;
70342;SDS011;57767;42.068;24.752;2022-10-31T01:29:54;4.13;;;2.20;;
70342;SDS011;57767;42.068;24.752;2022-10-31T01:30:59;7.65;;;2.22;;
70342;SDS011;57767;42.068;24.752;2022-10-31T01:32:03;13.38;;;2.67;;
70342;SDS011;57767;42.068;24.752;2022-10-31T01:33:04;7.80;;;2.40;;
70342;SDS011;57767;42.068;24.752;2022-10-31T01:34:06;8.10;;;2.13;;
70342;SDS011;57767;42.068;24.752;2022-10-31T01:35:08;5.10;;;2.30;;
70342;SDS011;57767;42.068;24.752;2022-10-31T01:36:13;8.07;;;2.47;;
70342;SDS011;57767;42.068;24.752;2022-10-31T01:37:17;5.80;;;2.28;;
70342;SDS011;57767;42.068;24.752;2022-10-31T01:38:19;5.65;;;2.35;;
70342;SDS011;57767;42.068;24.752;2022-10-31T01:39:20;4.65;;;2.05;;
70342;SDS011;57767;42.068;24.752;2022-10-31T01:40:22;3.42;;;1.92;;
70342;SDS011;57767;42.068;24.752;2022-10-31T01:41:25;6.95;;;2.55;;
70342;SDS011;57767;42.068;24.752;2022-10-31T01:42:31;5.63;;;2.22;;
70342;SDS011;57767;42.068;24.752;2022-10-31T01:45:15;8.95;;;2.75;;
70342;SDS011;57767;42.068;24.752;2022-10-31T01:46:29;5.60;;;2.25;;
70342;SDS011;57767;42.068;24.752;2022-10-31T01:47:41;7.95;;;2.40;;
70342;SDS011;57767;42.068;24.752;2022-10-31T01:48:46;6.63;;;2.42;;
70342;SDS011;57767;42.068;24.752;2022-10-31T01:49:50;5.85;;;2.20;;
70342;SDS011;57767;42.068;24.752;2022-10-31T01:50:54;7.13;;;2.30;;
70342;SDS011;57767;42.068;24.752;2022-10-31T01:51:58;5.35;;;2.03;;
70342;SDS011;57767;42.068;24.752;2022-10-31T01:53:05;5.45;;;2.20;;
70342;SDS011;57767;42.068;24.752;2022-10-31T01:54:12;8.30;;;1.83;;
70342;SDS011;57767;42.068;24.752;2022-10-31T01:56:18;4.20;;;2.20;;
70342;SDS011;57767;42.068;24.752;2022-10-31T01:57:20;8.63;;;2.40;;
70342;SDS011;57767;42.068;24.752;2022-10-31T01:58:24;5.45;;;1.92;;
70342;SDS011;57767;42.068;24.752;2022-10-31T01:59:29;7.72;;;2.30;;
70342;SDS011;57767;42.068;24.752;2022-10-31T02:00:33;8.18;;;2.50;;
70342;SDS011;57767;42.068;24.752;2022-10-31T02:01:35;5.97;;;2.13;;
70342;SDS011;57767;42.068;24.752;2022-10-31T02:02:39;6.80;;;2.55;;
70342;SDS011;57767;42.068;24.752;2022-10-31T02:03:41;7.47;;;2.25;;
70342;SDS011;57767;42.068;24.752;2022-10-31T02:04:43;5.85;;;2.08;;
70342;SDS011;57767;42.068;24.752;2022-10-31T02:05:47;10.63;;;2.42;;
70342;SDS011;57767;42.068;24.752;2022-10-31T02:06:54;6.88;;;2.22;;
70342;SDS011;57767;42.068;24.752;2022-10-31T02:08:07;7.30;;;2.05;;
70342;SDS011;57767;42.068;24.752;2022-10-31T02:09:15;6.18;;;2.45;;
70342;SDS011;57767;42.068;24.752;2022-10-31T02:10:19;5.03;;;2.25;;
70342;SDS011;57767;42.068;24.752;2022-10-31T02:11:23;7.40;;;2.30;;
70342;SDS011;57767;42.068;24.752;2022-10-31T02:12:25;4.20;;;2.00;;
70342;SDS011;57767;42.068;24.752;2022-10-31T02:13:30;10.05;;;2.20;;
70342;SDS011;57767;42.068;24.752;2022-10-31T02:14:32;4.88;;;2.20;;
70342;SDS011;57767;42.068;24.752;2022-10-31T02:15:34;4.28;;;2.08;;
70342;SDS011;57767;42.068;24.752;2022-10-31T02:16:38;9.00;;;2.20;;
70342;SDS011;57767;42.068;24.752;2022-10-31T02:17:40;6.32;;;2.30;;
70342;SDS011;57767;42.068;24.752;2022-10-31T02:18:42;6.53;;;2.30;;
70342;SDS011;57767;42.068;24.752;2022-10-31T02:19:52;5.40;;;2.03;;
70342;SDS011;57767;42.068;24.752;2022-10-31T02:21:19;7.38;;;1.90;;
70342;SDS011;57767;42.068;24.752;2022-10-31T02:24:12;5.40;;;1.75;;
70342;SDS011;57767;42.068;24.752;2022-10-31T02:26:23;4.72;;;2.10;;
70342;SDS011;57767;42.068;24.752;2022-10-31T02:34:36;4.32;;;1.90;;
70342;SDS011;57767;42.068;24.752;2022-10-31T02:35:48;6.15;;;2.10;;
70342;SDS011;57767;42.068;24.752;2022-10-31T02:42:39;18.38;;;2.60;;
70342;SDS011;57767;42.068;24.752;2022-10-31T02:44:10;8.30;;;2.60;;
70342;SDS011;57767;42.068;24.752;2022-10-31T02:48:22;12.77;;;2.78;;
70342;SDS011;57767;42.068;24.752;2022-10-31T02:51:00;7.65;;;2.22;;
70342;SDS011;57767;42.068;24.752;2022-10-31T02:52:17;6.32;;;2.55;;
70342;SDS011;57767;42.068;24.752;2022-10-31T02:53:25;10.82;;;2.10;;
70342;SDS011;57767;42.068;24.752;2022-10-31T02:54:27;9.57;;;2.17;;
70342;SDS011;57767;42.068;24.752;2022-10-31T02:56:31;6.78;;;2.10;;
70342;SDS011;57767;42.068;24.752;2022-10-31T02:57:33;5.85;;;2.30;;
70342;SDS011;57767;42.068;24.752;2022-10-31T02:58:38;6.07;;;2.40;;
70342;SDS011;57767;42.068;24.752;2022-10-31T02:59:49;5.05;;;1.90;;
70342;SDS011;57767;42.068;24.752;2022-10-31T03:03:21;5.00;;;2.28;;
70342;SDS011;57767;42.068;24.752;2022-10-31T03:10:25;3.22;;;1.90;;
70342;SDS011;57767;42.068;24.752;2022-10-31T03:11:29;4.30;;;2.15;;
70342;SDS011;57767;42.068;24.752;2022-10-31T03:12:44;5.90;;;2.35;;
70342;SDS011;57767;42.068;24.752;2022-10-31T03:14:06;4.50;;;2.15;;
70342;SDS011;57767;42.068;24.752;2022-10-31T03:15:13;6.13;;;2.17;;
70342;SDS011;57767;42.068;24.752;2022-10-31T03:17:36;6.50;;;2.13;;
70342;SDS011;57767;42.068;24.752;2022-10-31T03:18:44;6.45;;;2.17;;
70342;SDS011;57767;42.068;24.752;2022-10-31T03:19:54;5.75;;;2.33;;
70342;SDS011;57767;42.068;24.752;2022-10-31T03:21:13;7.38;;;2.38;;
70342;SDS011;57767;42.068;24.752;2022-10-31T03:22:21;7.15;;;2.30;;
70342;SDS011;57767;42.068;24.752;2022-10-31T03:23:25;5.85;;;2.15;;
70342;SDS011;57767;42.068;24.752;2022-10-31T03:24:29;3.00;;;2.22;;
70342;SDS011;57767;42.068;24.752;2022-10-31T03:25:34;4.13;;;2.30;;
70342;SDS011;57767;42.068;24.752;2022-10-31T03:26:38;3.10;;;1.80;;
70342;SDS011;57767;42.068;24.752;2022-10-31T03:27:46;5.78;;;2.40;;
70342;SDS011;57767;42.068;24.752;2022-10-31T03:28:53;5.57;;;1.90;;
70342;SDS011;57767;42.068;24.752;2022-10-31T03:30:02;5.35;;;1.88;;
70342;SDS011;57767;42.068;24.752;2022-10-31T03:31:06;3.90;;;2.00;;
70342;SDS011;57767;42.068;24.752;2022-10-31T03:33:29;4.78;;;2.03;;
70342;SDS011;57767;42.068;24.752;2022-10-31T03:34:36;4.75;;;2.17;;
70342;SDS011;57767;42.068;24.752;2022-10-31T03:35:41;8.52;;;2.58;;
70342;SDS011;57767;42.068;24.752;2022-10-31T03:36:47;6.03;;;2.00;;
70342;SDS011;57767;42.068;24.752;2022-10-31T03:37:53;7.40;;;2.35;;
70342;SDS011;57767;42.068;24.752;2022-10-31T03:38:56;5.22;;;2.35;;
70342;SDS011;57767;42.068;24.752;2022-10-31T03:40:00;6.53;;;2.25;;
70342;SDS011;57767;42.068;24.752;2022-10-31T03:41:06;4.72;;;2.22;;
70342;SDS011;57767;42.068;24.752;2022-10-31T03:42:21;5.03;;;1.90;;
70342;SDS011;57767;42.068;24.752;2022-10-31T03:43:28;5.93;;;2.08;;
70342;SDS011;57767;42.068;24.752;2022-10-31T03:44:33;8.05;;;2.00;;
70342;SDS011;57767;42.068;24.752;2022-10-31T03:45:39;5.03;;;2.20;;
70342;SDS011;57767;42.068;24.752;2022-10-31T03:46:45;4.45;;;2.22;;
70342;SDS011;57767;42.068;24.752;2022-10-31T03:47:47;4.75;;;2.17;;
70342;SDS011;57767;42.068;24.752;2022-10-31T03:48:49;3.40;;;1.95;;
70342;SDS011;57767;42.068;24.752;2022-10-31T03:49:51;6.00;;;2.30;;
70342;SDS011;57767;42.068;24.752;2022-10-31T03:52:10;7.28;;;2.38;;
70342;SDS011;57767;42.068;24.752;2022-10-31T03:54:08;5.82;;;2.50;;
70342;SDS011;57767;42.068;24.752;2022-10-31T03:54:52;6.95;;;2.38;;
70342;SDS011;57767;42.068;24.752;2022-10-31T03:56:05;5.35;;;1.95;;
70342;SDS011;57767;42.068;24.752;2022-10-31T03:57:17;5.65;;;2.00;;
70342;SDS011;57767;42.068;24.752;2022-10-31T03:58:34;6.38;;;2.17;;
70342;SDS011;57767;42.068;24.752;2022-10-31T03:59:56;5.55;;;2.50;;
70342;SDS011;57767;42.068;24.752;2022-10-31T04:01:09;7.60;;;2.40;;
70342;SDS011;57767;42.068;24.752;2022-10-31T04:02:20;9.35;;;2.30;;
70342;SDS011;57767;42.068;24.752;2022-10-31T04:03:30;6.85;;;2.15;;
70342;SDS011;57767;42.068;24.752;2022-10-31T04:04:35;5.40;;;2.15;;
70342;SDS011;57767;42.068;24.752;2022-10-31T04:05:38;5.72;;;2.55;;
70342;SDS011;57767;42.068;24.752;2022-10-31T04:06:41;6.25;;;2.25;;
70342;SDS011;57767;42.068;24.752;2022-10-31T04:07:46;6.45;;;2.20;;
70342;SDS011;57767;42.068;24.752;2022-10-31T04:08:51;7.03;;;2.20;;
70342;SDS011;57767;42.068;24.752;2022-10-31T04:09:57;5.22;;;2.50;;
70342;SDS011;57767;42.068;24.752;2022-10-31T04:11:02;10.75;;;2.47;;
70342;SDS011;57767;42.068;24.752;2022-10-31T04:12:06;5.60;;;2.25;;
70342;SDS011;57767;42.068;24.752;2022-10-31T04:13:13;5.25;;;2.00;;
70342;SDS011;57767;42.068;24.752;2022-10-31T04:14:19;7.95;;;2.45;;
70342;SDS011;57767;42.068;24.752;2022-10-31T04:15:25;7.07;;;2.15;;
70342;SDS011;57767;42.068;24.752;2022-10-31T04:16:28;8.65;;;2.15;;
70342;SDS011;57767;42.068;24.752;2022-10-31T04:17:31;8.13;;;2.03;;
70342;SDS011;57767;42.068;24.752;2022-10-31T04:18:36;4.35;;;2.20;;
70342;SDS011;57767;42.068;24.752;2022-10-31T04:19:38;6.00;;;2.00;;
70342;SDS011;57767;42.068;24.752;2022-10-31T04:20:40;5.00;;;2.10;;
70342;SDS011;57767;42.068;24.752;2022-10-31T04:21:42;9.82;;;2.35;;
70342;SDS011;57767;42.068;24.752;2022-10-31T04:22:47;6.70;;;2.17;;
70342;SDS011;57767;42.068;24.752;2022-10-31T04:23:49;5.30;;;2.60;;
70342;SDS011;57767;42.068;24.752;2022-10-31T04:24:50;4.97;;;2.20;;
70342;SDS011;57767;42.068;24.752;2022-10-31T04:25:52;6.38;;;2.58;;
70342;SDS011;57767;42.068;24.752;2022-10-31T04:26:54;5.78;;;1.90;;
70342;SDS011;57767;42.068;24.752;2022-10-31T04:27:55;10.23;;;2.47;;
70342;SDS011;57767;42.068;24.752;2022-10-31T04:28:58;9.45;;;2.47;;
70342;SDS011;57767;42.068;24.752;2022-10-31T04:29:59;7.13;;;2.45;;
70342;SDS011;57767;42.068;24.752;2022-10-31T04:31:01;4.72;;;2.00;;
70342;SDS011;57767;42.068;24.752;2022-10-31T04:32:03;8.98;;;2.20;;
70342;SDS011;57767;42.068;24.752;2022-10-31T04:33:05;7.85;;;2.60;;
70342;SDS011;57767;42.068;24.752;2022-10-31T04:34:06;8.93;;;2.70;;
70342;SDS011;57767;42.068;24.752;2022-10-31T04:35:08;5.90;;;2.85;;
70342;SDS011;57767;42.068;24.752;2022-10-31T04:36:10;6.05;;;2.45;;
70342;SDS011;57767;42.068;24.752;2022-10-31T04:37:12;5.93;;;2.30;;
70342;SDS011;57767;42.068;24.752;2022-10-31T04:38:14;6.03;;;2.40;;
70342;SDS011;57767;42.068;24.752;2022-10-31T04:39:15;7.88;;;2.70;;
70342;SDS011;57767;42.068;24.752;2022-10-31T04:40:22;5.68;;;2.10;;
70342;SDS011;57767;42.068;24.752;2022-10-31T04:41:24;4.30;;;2.05;;
70342;SDS011;57767;42.068;24.752;2022-10-31T04:42:28;5.57;;;2.13;;
70342;SDS011;57767;42.068;24.752;2022-10-31T04:43:30;6.18;;;2.78;;
70342;SDS011;57767;42.068;24.752;2022-10-31T04:44:32;8.60;;;2.35;;
70342;SDS011;57767;42.068;24.752;2022-10-31T04:45:34;4.38;;;2.60;;
70342;SDS011;57767;42.068;24.752;2022-10-31T04:46:36;6.38;;;2.53;;
70342;SDS011;57767;42.068;24.752;2022-10-31T04:47:37;7.25;;;2.28;;
70342;SDS011;57767;42.068;24.752;2022-10-31T04:48:39;6.50;;;2.35;;
70342;SDS011;57767;42.068;24.752;2022-10-31T04:49:41;7.97;;;2.38;;
70342;SDS011;57767;42.068;24.752;2022-10-31T04:50:42;8.07;;;2.40;;
70342;SDS011;57767;42.068;24.752;2022-10-31T04:51:44;6.05;;;2.17;;
70342;SDS011;57767;42.068;24.752;2022-10-31T04:52:46;8.63;;;2.15;;
70342;SDS011;57767;42.068;24.752;2022-10-31T04:53:48;10.82;;;2.30;;
70342;SDS011;57767;42.068;24.752;2022-10-31T04:54:49;6.63;;;1.88;;
70342;SDS011;57767;42.068;24.752;2022-10-31T04:55:51;6.07;;;2.35;;
70342;SDS011;57767;42.068;24.752;2022-10-31T04:56:53;6.50;;;2.30;;
70342;SDS011;57767;42.068;24.752;2022-10-31T04:57:54;5.50;;;2.15;;
70342;SDS011;57767;42.068;24.752;2022-10-31T04:58:56;6.88;;;2.85;;
70342;SDS011;57767;42.068;24.752;2022-10-31T04:59:58;9.23;;;2.45;;
70342;SDS011;57767;42.068;24.752;2022-10-31T05:01:00;5.40;;;2.17;;
70342;SDS011;57767;42.068;24.752;2022-10-31T05:02:01;5.25;;;2.08;;
70342;SDS011;57767;42.068;24.752;2022-10-31T05:03:03;7.22;;;2.50;;
70342;SDS011;57767;42.068;24.752;2022-10-31T05:04:05;5.32;;;2.33;;
70342;SDS011;57767;42.068;24.752;2022-10-31T05:05:07;6.93;;;2.35;;
70342;SDS011;57767;42.068;24.752;2022-10-31T05:06:08;5.25;;;2.50;;
70342;SDS011;57767;42.068;24.752;2022-10-31T05:07:10;5.82;;;2.50;;
70342;SDS011;57767;42.068;24.752;2022-10-31T05:08:12;4.30;;;2.10;;
70342;SDS011;57767;42.068;24.752;2022-10-31T05:09:14;6.40;;;2.42;;
70342;SDS011;57767;42.068;24.752;2022-10-31T05:10:20;7.18;;;2.30;;
70342;SDS011;57767;42.068;24.752;2022-10-31T05:11:23;11.18;;;2.72;;
70342;SDS011;57767;42.068;24.752;2022-10-31T05:12:25;8.88;;;2.83;;
70342;SDS011;57767;42.068;24.752;2022-10-31T05:13:27;5.90;;;2.40;;
70342;SDS011;57767;42.068;24.752;2022-10-31T05:14:29;7.82;;;2.42;;
70342;SDS011;57767;42.068;24.752;2022-10-31T05:15:30;9.02;;;2.60;;
70342;SDS011;57767;42.068;24.752;2022-10-31T05:16:32;8.55;;;2.90;;
70342;SDS011;57767;42.068;24.752;2022-10-31T05:17:34;4.78;;;2.40;;
70342;SDS011;57767;42.068;24.752;2022-10-31T05:18:36;9.13;;;2.42;;
70342;SDS011;57767;42.068;24.752;2022-10-31T05:19:37;5.25;;;2.55;;
70342;SDS011;57767;42.068;24.752;2022-10-31T05:20:39;9.02;;;2.30;;
70342;SDS011;57767;42.068;24.752;2022-10-31T05:21:41;6.80;;;2.30;;
70342;SDS011;57767;42.068;24.752;2022-10-31T05:22:43;5.75;;;2.25;;
70342;SDS011;57767;42.068;24.752;2022-10-31T05:23:49;5.40;;;2.25;;
70342;SDS011;57767;42.068;24.752;2022-10-31T05:24:51;7.13;;;2.65;;
70342;SDS011;57767;42.068;24.752;2022-10-31T05:25:53;6.05;;;2.42;;
70342;SDS011;57767;42.068;24.752;2022-10-31T05:26:54;6.30;;;2.20;;
70342;SDS011;57767;42.068;24.752;2022-10-31T05:27:56;8.75;;;2.55;;
70342;SDS011;57767;42.068;24.752;2022-10-31T05:28:59;8.13;;;2.28;;
70342;SDS011;57767;42.068;24.752;2022-10-31T05:30:00;8.38;;;2.33;;
70342;SDS011;57767;42.068;24.752;2022-10-31T05:31:02;7.53;;;2.60;;
70342;SDS011;57767;42.068;24.752;2022-10-31T05:32:04;6.32;;;2.40;;
70342;SDS011;57767;42.068;24.752;2022-10-31T05:33:06;6.53;;;2.20;;
70342;SDS011;57767;42.068;24.752;2022-10-31T05:34:07;5.50;;;2.20;;
70342;SDS011;57767;42.068;24.752;2022-10-31T05:35:10;10.20;;;2.25;;
70342;SDS011;57767;42.068;24.752;2022-10-31T05:36:14;3.70;;;2.60;;
70342;SDS011;57767;42.068;24.752;2022-10-31T05:37:15;13.18;;;2.90;;
70342;SDS011;57767;42.068;24.752;2022-10-31T05:38:17;9.52;;;2.15;;
70342;SDS011;57767;42.068;24.752;2022-10-31T05:39:19;5.43;;;2.30;;
70342;SDS011;57767;42.068;24.752;2022-10-31T05:40:21;7.35;;;2.70;;
70342;SDS011;57767;42.068;24.752;2022-10-31T05:41:23;11.88;;;3.38;;
70342;SDS011;57767;42.068;24.752;2022-10-31T05:42:25;10.13;;;2.58;;
70342;SDS011;57767;42.068;24.752;2022-10-31T05:43:26;9.98;;;2.90;;
70342;SDS011;57767;42.068;24.752;2022-10-31T05:44:28;11.88;;;2.58;;
70342;SDS011;57767;42.068;24.752;2022-10-31T05:45:30;9.45;;;2.60;;
70342;SDS011;57767;42.068;24.752;2022-10-31T05:46:32;7.80;;;2.53;;
70342;SDS011;57767;42.068;24.752;2022-10-31T05:47:34;6.45;;;2.47;;
70342;SDS011;57767;42.068;24.752;2022-10-31T05:48:36;9.07;;;2.58;;
70342;SDS011;57767;42.068;24.752;2022-10-31T05:49:38;8.40;;;2.40;;
70342;SDS011;57767;42.068;24.752;2022-10-31T05:50:40;8.27;;;2.22;;
70342;SDS011;57767;42.068;24.752;2022-10-31T05:51:41;6.03;;;2.50;;
70342;SDS011;57767;42.068;24.752;2022-10-31T05:52:43;9.88;;;2.50;;
70342;SDS011;57767;42.068;24.752;2022-10-31T05:53:45;7.07;;;2.40;;
70342;SDS011;57767;42.068;24.752;2022-10-31T05:54:47;7.53;;;2.60;;
70342;SDS011;57767;42.068;24.752;2022-10-31T05:55:49;9.95;;;3.20;;
70342;SDS011;57767;42.068;24.752;2022-10-31T05:56:50;7.80;;;2.70;;
70342;SDS011;57767;42.068;24.752;2022-10-31T05:57:53;9.20;;;2.70;;
70342;SDS011;57767;42.068;24.752;2022-10-31T05:58:55;4.72;;;2.30;;
70342;SDS011;57767;42.068;24.752;2022-10-31T05:59:57;6.00;;;2.00;;
70342;SDS011;57767;42.068;24.752;2022-10-31T06:00:58;7.00;;;2.50;;
70342;SDS011;57767;42.068;24.752;2022-10-31T06:02:00;8.73;;;2.92;;
70342;SDS011;57767;42.068;24.752;2022-10-31T06:03:03;4.90;;;2.50;;
70342;SDS011;57767;42.068;24.752;2022-10-31T06:04:06;5.00;;;2.25;;
70342;SDS011;57767;42.068;24.752;2022-10-31T06:05:08;7.70;;;2.50;;
70342;SDS011;57767;42.068;24.752;2022-10-31T06:06:10;4.82;;;2.47;;
70342;SDS011;57767;42.068;24.752;2022-10-31T06:07:11;3.20;;;2.00;;
70342;SDS011;57767;42.068;24.752;2022-10-31T06:08:13;11.25;;;2.65;;
70342;SDS011;57767;42.068;24.752;2022-10-31T06:09:15;14.35;;;3.17;;
70342;SDS011;57767;42.068;24.752;2022-10-31T06:10:17;9.05;;;2.35;;
70342;SDS011;57767;42.068;24.752;2022-10-31T06:11:20;11.98;;;2.55;;
70342;SDS011;57767;42.068;24.752;2022-10-31T06:12:22;8.25;;;2.50;;
70342;SDS011;57767;42.068;24.752;2022-10-31T06:13:23;5.03;;;2.20;;
70342;SDS011;57767;42.068;24.752;2022-10-31T06:14:25;10.10;;;2.40;;
70342;SDS011;57767;42.068;24.752;2022-10-31T06:15:27;12.23;;;2.70;;
70342;SDS011;57767;42.068;24.752;2022-10-31T06:16:29;7.75;;;2.40;;
70342;SDS011;57767;42.068;24.752;2022-10-31T06:17:31;8.70;;;2.60;;
70342;SDS011;57767;42.068;24.752;2022-10-31T06:18:33;8.15;;;2.50;;
70342;SDS011;57767;42.068;24.752;2022-10-31T06:19:35;15.65;;;4.43;;
70342;SDS011;57767;42.068;24.752;2022-10-31T06:20:37;26.63;;;7.63;;
70342;SDS011;57767;42.068;24.752;2022-10-31T06:21:38;21.63;;;8.95;;
70342;SDS011;57767;42.068;24.752;2022-10-31T06:22:40;21.38;;;9.45;;
70342;SDS011;57767;42.068;24.752;2022-10-31T06:23:42;16.30;;;4.97;;
70342;SDS011;57767;42.068;24.752;2022-10-31T06:24:44;10.18;;;4.55;;
70342;SDS011;57767;42.068;24.752;2022-10-31T06:25:49;10.88;;;4.05;;
70342;SDS011;57767;42.068;24.752;2022-10-31T06:26:51;11.25;;;2.95;;
70342;SDS011;57767;42.068;24.752;2022-10-31T06:27:53;11.98;;;2.90;;
70342;SDS011;57767;42.068;24.752;2022-10-31T06:28:55;7.82;;;2.90;;
70342;SDS011;57767;42.068;24.752;2022-10-31T06:30:04;8.00;;;2.85;;
70342;SDS011;57767;42.068;24.752;2022-10-31T06:31:06;6.68;;;2.65;;
70342;SDS011;57767;42.068;24.752;2022-10-31T06:32:11;7.75;;;2.50;;
70342;SDS011;57767;42.068;24.752;2022-10-31T06:33:13;9.07;;;2.80;;
70342;SDS011;57767;42.068;24.752;2022-10-31T06:34:15;10.95;;;2.78;;
70342;SDS011;57767;42.068;24.752;2022-10-31T06:35:17;15.13;;;3.10;;
70342;SDS011;57767;42.068;24.752;2022-10-31T06:36:19;6.57;;;2.53;;
70342;SDS011;57767;42.068;24.752;2022-10-31T06:37:22;8.27;;;2.38;;
70342;SDS011;57767;42.068;24.752;2022-10-31T06:38:25;3.97;;;2.42;;
70342;SDS011;57767;42.068;24.752;2022-10-31T06:39:27;9.27;;;2.70;;
70342;SDS011;57767;42.068;24.752;2022-10-31T06:40:29;8.50;;;3.17;;
70342;SDS011;57767;42.068;24.752;2022-10-31T06:41:31;7.13;;;3.42;;
70342;SDS011;57767;42.068;24.752;2022-10-31T06:42:33;6.80;;;3.13;;
70342;SDS011;57767;42.068;24.752;2022-10-31T06:43:34;11.30;;;3.00;;
70342;SDS011;57767;42.068;24.752;2022-10-31T06:44:36;10.30;;;2.90;;
70342;SDS011;57767;42.068;24.752;2022-10-31T06:45:38;6.55;;;2.35;;
70342;SDS011;57767;42.068;24.752;2022-10-31T06:46:39;27.50;;;4.25;;
70342;SDS011;57767;42.068;24.752;2022-10-31T06:47:41;7.70;;;2.55;;
70342;SDS011;57767;42.068;24.752;2022-10-31T06:49:03;6.47;;;2.33;;
70342;SDS011;57767;42.068;24.752;2022-10-31T06:50:05;12.55;;;2.92;;
70342;SDS011;57767;42.068;24.752;2022-10-31T06:51:07;7.75;;;2.70;;
70342;SDS011;57767;42.068;24.752;2022-10-31T06:52:09;5.30;;;2.40;;
70342;SDS011;57767;42.068;24.752;2022-10-31T06:53:10;10.60;;;2.75;;
70342;SDS011;57767;42.068;24.752;2022-10-31T06:54:13;8.02;;;2.63;;